Time;durP1;ratioP1;P1;durP2;ratioP2;P2;SDS_P1;SDS_P2;PMS_P1;PMS_P2;Temp;Humidity;BMP_temperature;BMP_pressure;BME280_temperature;BME280_humidity;BME280_pressure;Samples;Min_cycle;Max_cycle;Signal;HPM_P1;HPM_P2
2023/07/23 00:03:01;;;;;;;3.30;3.00;;;22.40;57.70;;;;;;5012290;28;22272;-83
2023/07/23 00:05:37;;;;;;;3.73;3.37;;;22.30;58.30;;;;;;4991239;28;20461;-83
2023/07/23 00:08:17;;;;;;;4.93;4.13;;;22.20;58.90;;;;;;4989798;28;20514;-82
2023/07/23 00:10:51;;;;;;;3.93;3.50;;;22.30;58.30;;;;;;4995804;28;20664;-81
2023/07/23 00:13:33;;;;;;;4.70;3.90;;;22.30;58.90;;;;;;4952979;28;20488;-83
2023/07/23 00:16:08;;;;;;;4.50;3.83;;;22.20;59.00;;;;;;5078274;22;20569;-82
2023/07/23 00:21:12;;;;;;;4.10;3.70;;;22.10;59.90;;;;;;5013463;23;20489;-80
2023/07/23 00:23:46;;;;;;;4.00;3.60;;;22.30;59.20;;;;;;4993890;28;20442;-82
2023/07/23 00:26:35;;;;;;;;;;;;;;;;;;;;;
2023/07/23 00:29:05;;;;;;;4.70;3.90;;;22.30;59.90;;;;;;5010903;28;20577;-81
2023/07/23 00:31:46;;;;;;;4.30;3.80;;;22.30;60.90;;;;;;4982586;28;20453;-82
2023/07/23 00:34:19;;;;;;;4.73;4.23;;;22.20;62.00;;;;;;4972301;28;20457;-82
2023/07/23 00:36:51;;;;;;;4.60;3.60;;;22.00;62.60;;;;;;4976186;28;21087;-82
2023/07/23 00:39:25;;;;;;;4.30;3.60;;;22.00;63.80;;;;;;4978314;28;20485;-82
2023/07/23 00:42:12;;;;;;;4.17;3.73;;;21.70;63.80;;;;;;4975115;28;20971;-82
2023/07/23 00:44:59;;;;;;;4.10;3.70;;;21.70;65.10;;;;;;4983819;28;20530;-83
2023/07/23 00:47:37;;;;;;;4.10;3.70;;;21.60;64.70;;;;;;4976271;28;20554;-82
2023/07/23 00:50:36;;;;;;;4.60;3.80;;;21.70;64.50;;;;;;4971686;28;20467;-82
2023/07/23 00:53:10;;;;;;;4.77;4.27;;;21.60;64.20;;;;;;4981918;28;20457;-80
2023/07/23 00:55:48;;;;;;;4.43;3.97;;;21.60;63.70;;;;;;4989708;28;20528;-83
2023/07/23 00:58:22;;;;;;;4.30;3.90;;;21.50;63.50;;;;;;4975664;28;20459;-82
2023/07/23 01:00:50;;;;;;;7.10;3.73;;;21.70;63.20;;;;;;4972612;28;20475;-82
2023/07/23 01:03:28;;;;;;;4.20;3.73;;;21.60;63.30;;;;;;4992556;28;20538;-82
2023/07/23 01:06:07;;;;;;;6.53;4.03;;;21.60;63.00;;;;;;4991146;28;21048;-82
2023/07/23 01:08:50;;;;;;;5.90;4.20;;;21.50;63.10;;;;;;4973823;28;20574;-81
2023/07/23 01:11:26;;;;;;;4.93;4.47;;;21.60;62.60;;;;;;4972958;28;20475;-80
2023/07/23 01:14:15;;;;;;;5.60;4.60;;;21.60;63.10;;;;;;4976592;28;20984;-81
2023/07/23 01:17:31;;;;;;;5.00;3.93;;;21.60;63.50;;;;;;4995498;28;20453;-79
2023/07/23 01:20:21;;;;;;;4.83;4.43;;;21.70;63.30;;;;;;4917504;29;20478;-82
2023/07/23 01:23:05;;;;;;;4.57;4.13;;;21.70;63.40;;;;;;4902967;29;20512;-81
2023/07/23 01:25:48;;;;;;;4.10;3.70;;;21.60;63.70;;;;;;4899533;29;20553;-84
2023/07/23 01:28:33;;;;;;;5.60;4.57;;;21.70;64.10;;;;;;4951966;28;20584;-83
2023/07/23 01:31:12;;;;;;;4.33;3.80;;;21.60;64.70;;;;;;4976733;28;20489;-83
2023/07/23 01:34:07;;;;;;;5.10;4.23;;;21.60;64.70;;;;;;4979344;28;20452;-82
2023/07/23 01:36:49;;;;;;;4.73;4.27;;;21.60;64.70;;;;;;4994053;28;21631;-82
2023/07/23 01:39:25;;;;;;;6.53;4.20;;;21.40;65.20;;;;;;4976695;28;20497;-83
2023/07/23 01:42:25;;;;;;;3.93;3.63;;;21.40;65.40;;;;;;4976160;28;20541;-80
2023/07/23 01:45:06;;;;;;;4.07;3.67;;;21.30;65.10;;;;;;4953043;28;20506;-81
2023/07/23 01:48:17;;;;;;;4.80;4.03;;;21.20;65.60;;;;;;4978925;28;20474;-81
2023/07/23 01:51:10;;;;;;;5.80;4.70;;;21.30;66.00;;;;;;4975924;28;21919;-81
2023/07/23 01:53:46;;;;;;;5.37;3.77;;;21.30;65.90;;;;;;4990766;28;20841;-80
2023/07/23 01:56:28;;;;;;;3.60;3.17;;;21.40;65.50;;;;;;4968306;28;20524;-80
2023/07/23 01:59:16;;;;;;;4.43;4.00;;;21.40;65.40;;;;;;4970133;28;20467;-81
2023/07/23 02:01:56;;;;;;;4.17;3.67;;;21.40;64.70;;;;;;4973692;28;20462;-79
2023/07/23 02:04:32;;;;;;;4.63;4.00;;;21.30;63.50;;;;;;4976859;28;20641;-79
2023/07/23 02:07:08;;;;;;;4.83;4.00;;;21.40;63.30;;;;;;4989717;28;20544;-81
2023/07/23 02:09:54;;;;;;;5.30;4.53;;;21.30;63.10;;;;;;4988306;28;21029;-82
2023/07/23 02:12:34;;;;;;;4.10;3.70;;;21.40;63.00;;;;;;4970407;28;20451;-80
2023/07/23 02:15:21;;;;;;;4.50;3.93;;;21.50;62.90;;;;;;4967484;28;20487;-81
2023/07/23 02:18:00;;;;;;;5.80;4.20;;;21.40;62.60;;;;;;4991370;28;20459;-81
2023/07/23 02:20:42;;;;;;;4.17;3.70;;;21.40;62.80;;;;;;4973088;28;20614;-82
2023/07/23 02:23:29;;;;;;;3.57;3.27;;;21.40;63.00;;;;;;4983548;28;20486;-82
2023/07/23 02:26:10;;;;;;;4.13;3.53;;;21.30;63.00;;;;;;4994276;28;20528;-82
2023/07/23 02:28:46;;;;;;;4.90;3.50;;;21.40;63.20;;;;;;4976420;28;20544;-81
2023/07/23 02:31:21;;;;;;;4.80;4.07;;;21.40;62.80;;;;;;4974301;28;21033;-82
2023/07/23 02:34:01;;;;;;;4.67;3.33;;;21.40;62.80;;;;;;4974950;28;20465;-82
2023/07/23 02:36:42;;;;;;;6.23;4.17;;;21.50;62.30;;;;;;4976854;28;20455;-81
2023/07/23 02:39:24;;;;;;;5.70;4.37;;;21.40;62.20;;;;;;4985727;28;20478;-82
2023/07/23 02:45:06;;;;;;;4.43;3.70;;;21.40;62.80;;;;;;4995943;28;20473;-80
2023/07/23 02:47:40;;;;;;;4.47;3.43;;;21.30;62.80;;;;;;5000363;28;20503;-80
2023/07/23 02:50:08;;;;;;;4.50;3.50;;;21.40;62.80;;;;;;5001738;28;20486;-81
2023/07/23 02:52:34;;;;;;;3.90;3.53;;;21.30;62.40;;;;;;5003024;28;20480;-80
2023/07/23 02:55:01;;;;;;;4.70;4.10;;;21.40;61.90;;;;;;4986250;28;20591;-81
2023/07/23 02:57:28;;;;;;;3.90;3.53;;;21.40;61.70;;;;;;5005905;28;20538;-80
2023/07/23 02:59:54;;;;;;;3.50;3.20;;;21.50;62.00;;;;;;5009055;28;20482;-82
2023/07/23 03:02:21;;;;;;;3.20;2.87;;;21.50;61.40;;;;;;5009895;28;20529;-82
2023/07/23 03:04:48;;;;;;;4.50;3.93;;;21.50;60.90;;;;;;5019618;28;20526;-80
2023/07/23 03:07:14;;;;;;;4.57;3.60;;;21.60;60.80;;;;;;5023131;28;20462;-81
2023/07/23 03:09:41;;;;;;;3.50;3.20;;;21.50;60.70;;;;;;5018619;28;20479;-82
2023/07/23 03:12:09;;;;;;;4.03;2.97;;;21.60;60.50;;;;;;5002914;28;20460;-80
2023/07/23 03:14:36;;;;;;;3.77;3.27;;;21.60;60.30;;;;;;4996338;28;20491;-82
2023/07/23 03:17:03;;;;;;;5.07;3.00;;;21.60;60.30;;;;;;5009830;28;20481;-80
2023/07/23 03:19:30;;;;;;;3.60;2.90;;;21.60;60.30;;;;;;4981395;28;20521;-78
2023/07/23 03:21:56;;;;;;;4.30;3.47;;;21.50;60.00;;;;;;4997266;28;22040;-78
2023/07/23 03:24:23;;;;;;;3.07;2.77;;;21.50;60.30;;;;;;4984618;28;20477;-79
2023/07/23 03:26:49;;;;;;;5.70;2.90;;;21.40;60.40;;;;;;4982106;28;21837;-79
2023/07/23 03:29:16;;;;;;;3.20;2.90;;;21.50;60.00;;;;;;4975708;28;20478;-80
2023/07/23 03:31:43;;;;;;;6.00;3.40;;;21.50;60.20;;;;;;4969081;28;20458;-80
2023/07/23 03:34:09;;;;;;;3.57;3.10;;;21.50;60.20;;;;;;4986401;28;20533;-80
2023/07/23 03:36:36;;;;;;;4.03;3.37;;;21.50;60.00;;;;;;4984197;28;20466;-81
2023/07/23 03:39:03;;;;;;;3.70;3.27;;;21.40;60.10;;;;;;4966479;28;20462;-79
2023/07/23 03:41:29;;;;;;;4.07;3.57;;;21.40;60.00;;;;;;4984554;28;20486;-80
2023/07/23 03:43:56;;;;;;;3.30;3.00;;;21.40;60.20;;;;;;4966536;28;20490;-80
2023/07/23 03:46:23;;;;;;;4.03;3.47;;;21.40;60.30;;;;;;4985673;28;20455;-81
2023/07/23 03:48:50;;;;;;;3.40;3.10;;;21.40;60.10;;;;;;4983114;28;20494;-80
2023/07/23 03:51:19;;;;;;;3.60;3.30;;;21.40;60.30;;;;;;4963676;28;21057;-81
2023/07/23 03:53:45;;;;;;;2.70;2.50;;;21.40;60.10;;;;;;4967138;28;20455;-79
2023/07/23 03:56:12;;;;;;;3.73;3.00;;;21.40;60.40;;;;;;4980678;28;20463;-83
2023/07/23 03:58:38;;;;;;;3.50;2.90;;;21.40;60.30;;;;;;4981210;28;20478;-80
2023/07/23 04:01:05;;;;;;;4.33;3.57;;;21.30;60.60;;;;;;4979277;28;20517;-80
2023/07/23 04:03:33;;;;;;;5.77;4.97;;;21.30;60.50;;;;;;4974111;28;20458;-81
2023/07/23 04:05:59;;;;;;;3.00;2.70;;;21.40;60.50;;;;;;4963116;28;21176;-82
2023/07/23 04:08:26;;;;;;;3.20;2.90;;;21.40;60.60;;;;;;4983399;28;20465;-80
2023/07/23 04:10:55;;;;;;;3.83;3.43;;;21.40;60.60;;;;;;4962357;28;20529;-81
2023/07/23 04:13:22;;;;;;;3.80;3.40;;;21.40;60.40;;;;;;4985268;28;20473;-80
2023/07/23 04:15:48;;;;;;;3.37;3.07;;;21.40;60.50;;;;;;4981083;28;20498;-80
2023/07/23 04:18:15;;;;;;;4.27;3.27;;;21.40;60.40;;;;;;4968090;28;20461;-80
2023/07/23 04:20:42;;;;;;;5.63;3.13;;;21.40;60.50;;;;;;4988988;28;20497;-80
2023/07/23 04:23:09;;;;;;;3.30;2.90;;;21.40;60.60;;;;;;4998755;28;20779;-80
2023/07/23 04:25:35;;;;;;;3.73;3.43;;;21.40;60.30;;;;;;5006244;28;20451;-81
2023/07/23 04:28:05;;;;;;;3.37;3.07;;;21.30;60.40;;;;;;4998980;28;20545;-80
2023/07/23 04:30:33;;;;;;;3.10;2.83;;;21.30;60.60;;;;;;5008959;28;20486;-80
2023/07/23 04:33:00;;;;;;;3.00;2.40;;;21.40;60.30;;;;;;4984740;28;20469;-80
2023/07/23 04:35:27;;;;;;;4.63;2.90;;;21.40;60.10;;;;;;4983400;28;20513;-80
2023/07/23 04:37:54;;;;;;;3.60;2.87;;;21.40;60.10;;;;;;5004308;28;20471;-83
2023/07/23 04:40:21;;;;;;;3.70;3.07;;;21.40;60.10;;;;;;4995798;28;20469;-80
2023/07/23 04:42:48;;;;;;;3.60;3.30;;;21.50;60.10;;;;;;4979800;28;21157;-81
2023/07/23 04:45:15;;;;;;;3.53;3.10;;;21.50;59.90;;;;;;4974185;28;20467;-80
2023/07/23 04:47:42;;;;;;;3.40;2.90;;;21.30;60.20;;;;;;4975741;28;20986;-81
2023/07/23 04:50:11;;;;;;;3.97;3.47;;;21.30;60.40;;;;;;4975761;28;20573;-80
2023/07/23 04:52:38;;;;;;;6.27;3.50;;;21.40;61.00;;;;;;4976924;28;20459;-83
2023/07/23 04:55:07;;;;;;;3.57;3.00;;;21.60;60.80;;;;;;4993581;28;20534;-81
2023/07/23 04:57:34;;;;;;;4.60;3.47;;;21.80;60.50;;;;;;4996597;28;20447;-81
2023/07/23 05:00:01;;;;;;;3.90;3.50;;;21.80;60.50;;;;;;4992789;28;21237;-82
2023/07/23 05:02:27;;;;;;;3.10;2.80;;;21.60;60.70;;;;;;4975494;28;20474;-81
2023/07/23 05:04:54;;;;;;;3.13;2.90;;;21.70;60.90;;;;;;4993480;28;20502;-83
2023/07/23 05:07:21;;;;;;;4.00;3.43;;;21.70;60.80;;;;;;4969462;28;21252;-82
2023/07/23 05:09:49;;;;;;;3.13;2.80;;;21.60;61.50;;;;;;4996355;28;20491;-80
2023/07/23 05:12:16;;;;;;;4.47;3.10;;;21.60;61.40;;;;;;4981456;28;20458;-81
2023/07/23 05:14:46;;;;;;;5.60;3.07;;;21.70;61.30;;;;;;4994697;28;20474;-80
2023/07/23 05:17:13;;;;;;;5.13;3.40;;;21.60;62.30;;;;;;4977068;28;20532;-80
2023/07/23 05:19:40;;;;;;;3.77;3.10;;;21.50;61.70;;;;;;4981897;28;20505;-81
2023/07/23 05:22:07;;;;;;;3.43;2.60;;;21.40;62.00;;;;;;4993899;28;20470;-82
2023/07/23 05:24:34;;;;;;;3.60;2.97;;;21.30;62.30;;;;;;4979290;28;20478;-82
2023/07/23 05:27:01;;;;;;;4.37;3.20;;;21.50;62.60;;;;;;5000155;28;20526;-80
2023/07/23 05:29:28;;;;;;;3.03;2.70;;;21.50;62.30;;;;;;4993652;28;20498;-81
2023/07/23 05:31:54;;;;;;;3.70;3.40;;;21.50;62.30;;;;;;4992584;28;20474;-82
2023/07/23 05:34:21;;;;;;;3.63;2.97;;;21.50;62.40;;;;;;4988782;28;20458;-82
2023/07/23 05:37:14;;;;;;;3.10;2.53;;;21.60;62.30;;;;;;4975999;28;20466;-83
2023/07/23 05:39:57;;;;;;;3.10;2.63;;;21.60;62.20;;;;;;4999654;28;20477;-82
2023/07/23 05:42:26;;;;;;;3.40;3.10;;;21.50;62.20;;;;;;5000736;28;20474;-80
2023/07/23 05:45:04;;;;;;;3.20;2.70;;;21.50;62.40;;;;;;4997374;28;20592;-80
2023/07/23 05:47:33;;;;;;;3.10;2.80;;;21.50;62.30;;;;;;4993361;28;20556;-79
2023/07/23 05:50:00;;;;;;;3.20;2.90;;;21.40;62.00;;;;;;5002274;28;20489;-79
2023/07/23 05:55:22;;;;;;;2.87;2.57;;;21.60;61.60;;;;;;5093963;22;20548;-80
2023/07/23 05:57:48;;;;;;;4.83;3.30;;;21.80;61.30;;;;;;5004830;28;20993;-82
2023/07/23 06:00:15;;;;;;;3.10;2.60;;;21.80;61.00;;;;;;4998741;28;20725;-80
2023/07/23 06:02:47;;;;;;;2.70;2.50;;;21.80;61.00;;;;;;5010982;28;20469;-81
2023/07/23 06:05:25;;;;;;;3.77;2.97;;;21.80;60.70;;;;;;5020932;28;20538;-80
2023/07/23 06:08:05;;;;;;;5.03;2.93;;;21.90;60.80;;;;;;4998529;28;20489;-80
2023/07/23 06:15:39;;;;;;;2.70;2.50;;;21.80;61.70;;;;;;4998229;28;20849;-81
2023/07/23 06:18:06;;;;;;;3.33;2.80;;;21.80;60.90;;;;;;5226143;22;20569;-81
2023/07/23 06:20:33;;;;;;;3.20;2.90;;;21.90;60.90;;;;;;5008023;28;20483;-81
2023/07/23 06:23:03;;;;;;;4.00;2.60;;;21.90;61.40;;;;;;4996866;28;20453;-81
2023/07/23 06:28:00;;;;;;;3.67;2.83;;;21.60;62.00;;;;;;5231444;22;20489;-81
2023/07/23 06:30:27;;;;;;;3.47;2.40;;;21.80;61.90;;;;;;5038152;28;20557;-79
2023/07/23 06:32:53;;;;;;;3.00;2.70;;;22.00;61.30;;;;;;5076174;23;20505;-80
2023/07/23 06:35:20;;;;;;;3.00;2.60;;;22.00;60.70;;;;;;5016750;28;20462;-80
2023/07/23 06:48:32;;;;;;;2.57;2.30;;;22.10;60.70;;;;;;5186318;22;20493;-82
2023/07/23 06:59:24;;;;;;;3.33;2.43;;;22.00;60.80;;;;;;5575147;22;20492;-80
2023/07/23 07:01:51;;;;;;;2.30;2.07;;;22.10;60.70;;;;;;5001748;28;20457;-81
2023/07/23 07:04:19;;;;;;;3.23;2.67;;;22.00;61.10;;;;;;5017672;28;20565;-82
2023/07/23 07:06:46;;;;;;;2.57;2.20;;;21.90;61.20;;;;;;5106152;22;20498;-80
2023/07/23 07:09:13;;;;;;;2.60;2.37;;;21.60;63.60;;;;;;5008763;28;20465;-80
2023/07/23 07:11:39;;;;;;;2.57;2.37;;;21.50;64.80;;;;;;5647704;23;20498;-80
2023/07/23 07:14:06;;;;;;;7.30;2.80;;;21.70;64.10;;;;;;5003737;28;20466;-80
2023/07/23 07:16:33;;;;;;;3.10;2.80;;;21.60;64.70;;;;;;5015538;28;20454;-82
2023/07/23 07:18:59;;;;;;;2.40;2.20;;;21.70;64.90;;;;;;5019791;28;20506;-80
2023/07/23 07:21:26;;;;;;;3.20;2.63;;;21.60;66.20;;;;;;5004772;28;20501;-81
2023/07/23 07:23:53;;;;;;;2.43;2.23;;;21.50;68.20;;;;;;4992843;28;20557;-80
2023/07/23 07:26:20;;;;;;;3.03;2.43;;;21.50;67.70;;;;;;4989424;28;20455;-80
2023/07/23 07:28:47;;;;;;;2.57;2.20;;;21.50;69.30;;;;;;4987635;28;20471;-81
2023/07/23 07:31:15;;;;;;;2.73;1.97;;;21.30;70.20;;;;;;4991342;28;20490;-81
2023/07/23 07:33:43;;;;;;;2.53;2.33;;;21.30;71.10;;;;;;5244741;23;20624;-81
2023/07/23 07:36:11;;;;;;;2.03;1.87;;;21.20;70.80;;;;;;5031926;28;20494;-80
2023/07/23 07:38:37;;;;;;;3.77;2.43;;;21.20;71.40;;;;;;5015153;28;20481;-81
2023/07/23 07:41:06;;;;;;;3.33;2.00;;;21.20;71.30;;;;;;5015206;28;20478;-80
2023/07/23 07:43:32;;;;;;;2.57;2.30;;;21.00;70.60;;;;;;5001751;28;20492;-80
2023/07/23 07:46:00;;;;;;;3.00;2.50;;;20.80;72.80;;;;;;5008057;28;20515;-81
2023/07/23 07:48:28;;;;;;;3.77;2.57;;;20.80;74.40;;;;;;5010331;28;20465;-81
2023/07/23 07:50:59;;;;;;;2.47;2.20;;;20.70;75.10;;;;;;4991602;28;21897;-81
2023/07/23 07:56:23;;;;;;;2.30;1.87;;;20.70;75.90;;;;;;5021804;28;20557;-81
2023/07/23 07:58:50;;;;;;;2.43;2.23;;;20.60;78.00;;;;;;5000458;28;20517;-80
2023/07/23 08:01:17;;;;;;;2.90;2.37;;;20.60;79.90;;;;;;5007450;28;20476;-82
2023/07/23 08:03:46;;;;;;;2.43;2.23;;;20.50;80.10;;;;;;5002018;28;20462;-81
2023/07/23 08:06:14;;;;;;;2.13;1.93;;;20.30;80.70;;;;;;4989332;28;20450;-82
2023/07/23 08:08:44;;;;;;;3.70;2.30;;;20.30;81.80;;;;;;5000197;28;20546;-80
2023/07/23 08:11:12;;;;;;;3.20;2.30;;;20.30;82.70;;;;;;4998070;28;20553;-81
2023/07/23 08:13:52;;;;;;;2.80;2.50;;;20.30;83.60;;;;;;4988615;28;20857;-82
2023/07/23 08:16:19;;;;;;;2.80;2.40;;;20.30;86.20;;;;;;4986717;28;20458;-80
2023/07/23 08:18:46;;;;;;;3.33;2.13;;;20.30;86.40;;;;;;4975802;28;20572;-81
2023/07/23 08:21:13;;;;;;;4.20;2.60;;;20.30;87.00;;;;;;4994139;28;20485;-80
2023/07/23 08:23:42;;;;;;;2.93;2.20;;;20.40;88.30;;;;;;4993359;28;20474;-81
2023/07/23 08:26:12;;;;;;;2.50;2.17;;;20.40;88.30;;;;;;4994670;28;21001;-80
2023/07/23 08:28:46;;;;;;;4.33;2.60;;;20.30;89.20;;;;;;4993480;28;20436;-80
2023/07/23 08:31:14;;;;;;;3.50;2.20;;;20.30;89.60;;;;;;4994492;28;20486;-79
2023/07/23 08:33:46;;;;;;;3.87;2.10;;;20.30;90.00;;;;;;5462232;22;20554;-83
2023/07/23 08:36:16;;;;;;;2.30;2.10;;;20.20;90.20;;;;;;5020016;28;20529;-81
2023/07/23 08:38:43;;;;;;;2.80;2.60;;;20.10;90.90;;;;;;5014200;28;20446;-82
2023/07/23 08:41:27;;;;;;;2.23;2.03;;;20.00;91.00;;;;;;4994056;28;20483;-80
2023/07/23 08:44:06;;;;;;;3.53;2.47;;;19.90;91.30;;;;;;4988288;28;20475;-81
2023/07/23 08:46:44;;;;;;;2.50;2.00;;;19.80;92.10;;;;;;4978956;28;20458;-82
2023/07/23 08:49:11;;;;;;;3.43;2.43;;;19.80;92.90;;;;;;4997192;28;21010;-80
2023/07/23 08:51:48;;;;;;;2.97;2.73;;;20.00;93.50;;;;;;4981254;28;20508;-81
2023/07/23 08:54:18;;;;;;;2.57;2.37;;;20.10;93.30;;;;;;4990980;28;20451;-81
2023/07/23 08:56:45;;;;;;;3.17;1.93;;;20.10;93.60;;;;;;4988479;28;20459;-81
2023/07/23 08:59:12;;;;;;;3.97;2.47;;;20.00;93.70;;;;;;4975420;28;20517;-80
2023/07/23 09:01:41;;;;;;;3.70;2.53;;;19.90;93.80;;;;;;4993685;28;20482;-80
2023/07/23 09:04:11;;;;;;;2.80;2.20;;;19.90;94.50;;;;;;4991731;28;20494;-80
2023/07/23 09:06:41;;;;;;;2.40;2.20;;;19.90;94.70;;;;;;4973988;28;20450;-81
2023/07/23 09:09:10;;;;;;;4.13;2.50;;;19.90;95.40;;;;;;4969977;28;20835;-80
2023/07/23 09:11:38;;;;;;;2.50;2.03;;;20.10;95.10;;;;;;4951754;28;20497;-82
2023/07/23 09:14:08;;;;;;;2.37;1.90;;;20.10;95.30;;;;;;4991442;28;20545;-81
2023/07/23 09:16:40;;;;;;;5.90;2.47;;;20.10;95.30;;;;;;4989891;28;20462;-82
2023/07/23 09:19:11;;;;;;;2.70;2.50;;;19.90;95.80;;;;;;4989949;28;20561;-83
2023/07/23 09:21:40;;;;;;;3.30;2.40;;;19.90;96.00;;;;;;4985867;28;20566;-81
2023/07/23 09:24:11;;;;;;;2.07;1.87;;;19.80;96.30;;;;;;4972126;28;21267;-82
2023/07/23 09:26:38;;;;;;;3.80;2.57;;;20.00;96.60;;;;;;4996458;28;20537;-83
2023/07/23 09:29:08;;;;;;;2.83;2.30;;;20.10;96.40;;;;;;4980018;28;20583;-82
2023/07/23 09:31:38;;;;;;;3.37;2.57;;;20.10;96.20;;;;;;4999817;28;21142;-82
2023/07/23 09:34:04;;;;;;;3.93;2.43;;;20.30;96.20;;;;;;5006577;28;21208;-83
2023/07/23 09:36:31;;;;;;;2.83;2.30;;;20.30;96.10;;;;;;5001369;28;20464;-84
2023/07/23 09:39:08;;;;;;;4.73;2.37;;;20.40;96.10;;;;;;4987910;28;20538;-84
2023/07/23 09:41:37;;;;;;;2.70;2.20;;;20.50;96.20;;;;;;4977239;28;20991;-84
2023/07/23 09:44:09;;;;;;;2.37;2.17;;;20.50;96.30;;;;;;5325766;22;21165;-82
2023/07/23 09:46:39;;;;;;;3.97;2.50;;;20.60;96.50;;;;;;5018323;28;20469;-82
2023/07/23 09:49:06;;;;;;;3.30;2.33;;;20.60;97.00;;;;;;5003824;28;20445;-83
2023/07/23 09:51:36;;;;;;;2.67;2.40;;;20.60;97.10;;;;;;5022276;28;21090;-83
2023/07/23 09:54:04;;;;;;;3.73;2.30;;;20.60;97.20;;;;;;5007616;28;20478;-82
2023/07/23 09:56:35;;;;;;;4.20;2.60;;;20.50;97.10;;;;;;5024694;28;20500;-83
2023/07/23 09:59:03;;;;;;;2.73;2.40;;;20.50;97.20;;;;;;4975830;28;20464;-81
2023/07/23 10:01:31;;;;;;;2.97;2.67;;;20.50;97.60;;;;;;5015187;28;20469;-81
2023/07/23 10:04:01;;;;;;;3.23;2.60;;;20.50;98.10;;;;;;5037654;28;20453;-81
2023/07/23 10:06:28;;;;;;;2.90;2.70;;;20.50;98.40;;;;;;5025036;28;20496;-83
2023/07/23 10:11:42;;;;;;;2.50;2.30;;;20.60;99.00;;;;;;4970830;28;20510;-81
2023/07/23 10:14:09;;;;;;;2.43;2.23;;;20.30;99.80;;;;;;4984928;28;20730;-83
2023/07/23 10:16:39;;;;;;;2.70;2.50;;;20.30;99.90;;;;;;4986670;28;20457;-84
2023/07/23 10:19:08;;;;;;;2.50;2.23;;;20.50;99.90;;;;;;4986804;28;21743;-84
2023/07/23 10:21:36;;;;;;;4.50;3.07;;;20.60;99.90;;;;;;4967871;28;20628;-82
2023/07/23 10:24:04;;;;;;;3.60;2.30;;;20.50;99.80;;;;;;4968984;28;20543;-81
2023/07/23 10:26:40;;;;;;;2.60;2.40;;;20.50;99.70;;;;;;4987733;28;20566;-82
2023/07/23 10:34:36;;;;;;;2.40;2.20;;;20.50;99.50;;;;;;5016535;28;20652;-82
2023/07/23 10:37:19;;;;;;;2.23;1.90;;;20.50;99.40;;;;;;5019524;28;20461;-82
2023/07/23 10:39:51;;;;;;;2.70;2.30;;;20.50;99.30;;;;;;5008424;28;20465;-83
2023/07/23 10:42:37;;;;;;;4.07;2.43;;;20.50;99.10;;;;;;5186784;22;20445;-81
2023/07/23 10:48:01;;;;;;;2.20;2.00;;;20.50;99.30;;;;;;5594088;22;20458;-82
2023/07/23 10:50:31;;;;;;;3.17;2.27;;;20.40;99.20;;;;;;5038547;28;20512;-84
2023/07/23 10:53:03;;;;;;;2.43;2.13;;;20.50;99.60;;;;;;5030855;28;20618;-84
2023/07/23 10:55:47;;;;;;;1.97;1.87;;;20.60;99.60;;;;;;5011316;28;20458;-83
2023/07/23 10:58:20;;;;;;;2.30;2.10;;;20.60;99.60;;;;;;5026464;28;20445;-84
2023/07/23 11:00:53;;;;;;;2.13;1.90;;;20.70;99.20;;;;;;5023964;28;20485;-82
2023/07/23 11:03:21;;;;;;;2.87;2.00;;;20.70;99.00;;;;;;5008724;28;20453;-84
2023/07/23 11:05:50;;;;;;;2.17;1.70;;;20.80;98.80;;;;;;5012866;28;20445;-80
2023/07/23 11:08:26;;;;;;;2.50;2.30;;;20.90;98.30;;;;;;5012884;28;20453;-83
2023/07/23 11:11:01;;;;;;;2.40;2.20;;;20.90;98.30;;;;;;5033066;28;21513;-83
2023/07/23 11:13:32;;;;;;;2.97;2.60;;;20.90;98.20;;;;;;5008280;28;20491;-84
2023/07/23 11:16:00;;;;;;;3.23;2.50;;;20.90;97.50;;;;;;5008581;28;20453;-82
2023/07/23 11:30:17;;;;;;;3.47;3.17;;;21.10;96.90;;;;;;5615902;22;20534;-82
2023/07/23 11:32:47;;;;;;;2.00;1.90;;;21.10;96.80;;;;;;5012009;28;20446;-84
2023/07/23 11:35:15;;;;;;;3.23;1.90;;;21.20;96.70;;;;;;5012859;28;20511;-84
2023/07/23 11:37:51;;;;;;;1.90;1.67;;;21.30;96.60;;;;;;5028461;28;20453;-84
2023/07/23 11:40:25;;;;;;;2.30;2.10;;;21.30;96.00;;;;;;5010595;28;21494;-84
2023/07/23 11:42:53;;;;;;;2.83;2.63;;;21.30;96.20;;;;;;5038136;28;21161;-83
2023/07/23 11:45:21;;;;;;;2.33;2.13;;;21.40;96.30;;;;;;5019859;28;20507;-83
2023/07/23 11:47:53;;;;;;;1.50;1.40;;;21.50;96.20;;;;;;5042465;28;20457;-85
2023/07/23 11:50:24;;;;;;;1.30;1.20;;;21.60;96.00;;;;;;5043941;28;20489;-82
2023/07/23 11:52:51;;;;;;;1.73;1.63;;;21.60;95.60;;;;;;5045010;28;20489;-82
2023/07/23 11:55:20;;;;;;;1.47;1.37;;;21.70;95.60;;;;;;5024759;28;20491;-85
2023/07/23 11:58:00;;;;;;;1.80;1.70;;;21.60;95.60;;;;;;5035983;28;20473;-85
2023/07/23 12:00:48;;;;;;;2.97;1.97;;;21.60;95.80;;;;;;5003810;28;20478;-81
2023/07/23 12:03:16;;;;;;;1.47;1.33;;;21.60;95.90;;;;;;5021388;28;20458;-84
2023/07/23 12:05:56;;;;;;;1.33;1.23;;;21.50;95.40;;;;;;5015707;28;20672;-84
2023/07/23 12:13:52;;;;;;;1.33;1.10;;;21.90;95.60;;;;;;4130344;26;20494;-82
2023/07/23 12:16:42;;;;;;;1.47;1.37;;;22.00;95.20;;;;;;4976632;28;20457;-82
2023/07/23 12:19:22;;;;;;;3.30;2.70;;;22.10;94.60;;;;;;4981023;28;20562;-83
2023/07/23 12:21:53;;;;;;;1.47;1.37;;;22.20;94.60;;;;;;5131230;23;20502;-83
2023/07/23 12:24:28;;;;;;;2.20;1.63;;;22.20;94.10;;;;;;5014394;28;20471;-84
2023/07/23 12:26:58;;;;;;;1.00;0.90;;;22.10;94.30;;;;;;4989613;28;20472;-82
2023/07/23 12:29:29;;;;;;;1.53;1.40;;;22.30;93.90;;;;;;5012912;28;20566;-85
2023/07/23 12:32:11;;;;;;;1.20;1.10;;;22.40;93.50;;;;;;4989019;28;20699;-84
2023/07/23 12:34:42;;;;;;;1.63;1.47;;;22.30;93.50;;;;;;4987112;28;20484;-84
2023/07/23 12:37:09;;;;;;;1.20;1.10;;;22.20;93.80;;;;;;4987652;28;21291;-83
2023/07/23 12:39:36;;;;;;;2.27;1.23;;;22.00;93.90;;;;;;4987145;28;20494;-85
2023/07/23 12:42:03;;;;;;;2.57;1.83;;;22.20;94.10;;;;;;4988132;28;20542;-84
2023/07/23 12:44:30;;;;;;;1.40;1.30;;;22.40;93.50;;;;;;4985780;28;20462;-82
2023/07/23 12:46:57;;;;;;;1.40;1.30;;;22.50;93.60;;;;;;4987340;28;20459;-83
2023/07/23 12:49:23;;;;;;;1.60;1.50;;;22.50;93.40;;;;;;4988270;28;20474;-83
2023/07/23 12:51:51;;;;;;;1.53;1.40;;;22.70;92.90;;;;;;4988239;28;20490;-82
2023/07/23 12:54:18;;;;;;;1.20;1.10;;;22.50;93.00;;;;;;4991949;28;21160;-84
2023/07/23 12:56:45;;;;;;;1.37;1.27;;;22.60;93.40;;;;;;4997258;28;20423;-80
2023/07/23 12:59:12;;;;;;;1.10;1.10;;;23.20;92.20;;;;;;5000150;28;20475;-84
2023/07/23 13:01:41;;;;;;;1.57;1.47;;;23.40;91.60;;;;;;4998273;28;20510;-82
2023/07/23 13:04:08;;;;;;;1.20;1.10;;;23.20;91.60;;;;;;4997146;28;20486;-83
2023/07/23 13:06:34;;;;;;;1.37;1.27;;;22.80;92.20;;;;;;4994633;28;20447;-82
2023/07/23 13:09:01;;;;;;;1.53;1.00;;;22.50;92.90;;;;;;4987895;28;20466;-83
2023/07/23 13:11:28;;;;;;;1.23;1.13;;;22.30;93.30;;;;;;4997403;28;20549;-82
2023/07/23 13:13:55;;;;;;;1.43;1.33;;;22.50;93.50;;;;;;4990565;28;20451;-81
2023/07/23 13:16:22;;;;;;;1.10;1.00;;;22.60;93.50;;;;;;4993282;28;20460;-80
2023/07/23 13:18:48;;;;;;;1.67;1.10;;;23.00;92.70;;;;;;4990997;28;20461;-85
2023/07/23 13:21:16;;;;;;;1.30;1.20;;;23.00;92.70;;;;;;4990502;28;20521;-84
2023/07/23 13:23:43;;;;;;;1.20;1.10;;;23.00;92.40;;;;;;4988627;28;20443;-84
2023/07/23 13:26:12;;;;;;;1.70;1.60;;;23.40;91.80;;;;;;4988999;28;20499;-84
2023/07/23 13:28:45;;;;;;;1.30;1.20;;;23.20;92.00;;;;;;4995023;28;20452;-82
2023/07/23 13:31:21;;;;;;;1.57;1.00;;;23.20;92.20;;;;;;5002287;28;20470;-84
2023/07/23 13:33:50;;;;;;;2.70;0.90;;;23.40;91.80;;;;;;5006892;28;20466;-80
2023/07/23 13:36:17;;;;;;;0.90;0.67;;;23.30;92.10;;;;;;5007042;28;21953;-82
2023/07/23 13:38:48;;;;;;;1.37;1.07;;;23.50;92.00;;;;;;5007013;28;20435;-84
2023/07/23 13:41:15;;;;;;;2.53;2.33;;;23.40;91.70;;;;;;5002600;28;20904;-81
2023/07/23 13:43:47;;;;;;;1.10;1.00;;;23.60;91.90;;;;;;5005821;28;20595;-83
2023/07/23 13:46:17;;;;;;;0.70;0.70;;;23.70;91.60;;;;;;5009635;28;20522;-82
2023/07/23 13:48:47;;;;;;;0.90;0.90;;;24.00;91.00;;;;;;5006101;28;20439;-80
2023/07/23 14:28:50;;;;;;;;;;;;;;;;;;;;;
2023/07/23 15:09:39;;;;;;;1.70;1.60;;;23.50;91.30;;;;;;5009325;28;20540;-84
2023/07/23 20:26:43;;;;;;;;;;;;;;;;;;;;;
2023/07/23 21:10:01;;;;;;;;;;;;;;;;;;;;;
2023/07/23 22:58:26;;;;;;;3.67;2.33;;;20.70;99.90;;;;;;4918928;29;20508;-82
